| time (UTC) | temp F | wind direction | speed MPH | gust MPH | rain 1hr in | rain 24hr in | rain mn in | humidity % | barometer mb |
| 20260505193003 | 85 | 194 | 8.0 | 18.0 | 0.00 | 0.00 | 0.00 | 23 | 1004.0 |
| 20260505192504 | 84 | 191 | 9.0 | 21.0 | 0.00 | 0.00 | 0.00 | 24 | 1004.0 |
| 20260505192004 | 84 | 192 | 9.0 | 21.0 | 0.00 | 0.00 | 0.00 | 24 | 1004.2 |
| 20260505191503 | 85 | 198 | 8.0 | 17.0 | 0.00 | 0.00 | 0.00 | 22 | 1004.2 |
| 20260505191003 | 84 | 195 | 9.0 | 19.0 | 0.00 | 0.00 | 0.00 | 23 | 1004.3 |
| 20260505190503 | 84 | 189 | 12.0 | 24.0 | 0.00 | 0.00 | 0.00 | 22 | 1004.5 |
| 20260505190004 | 84 | 189 | 9.0 | 24.0 | 0.00 | 0.00 | 0.00 | 23 | 1004.4 |
| 20260505185504 | 85 | 191 | 9.0 | 25.0 | 0.00 | 0.00 | 0.00 | 24 | 1004.4 |
| 20260505185003 | 84 | 189 | 12.0 | 28.0 | 0.00 | 0.00 | 0.00 | 22 | 1004.6 |
| 20260505184503 | 84 | 189 | 10.0 | 28.0 | 0.00 | 0.00 | 0.00 | 23 | 1004.8 |
| 20260505184004 | 85 | 198 | 9.0 | 28.0 | 0.00 | 0.00 | 0.00 | 24 | 1004.9 |
| 20260505183503 | 85 | 204 | 8.0 | 21.0 | 0.00 | 0.00 | 0.00 | 25 | 1005.0 |
| 20260505183004 | 84 | 199 | 7.0 | 20.0 | 0.00 | 0.00 | 0.00 | 25 | 1004.8 |
| 20260505182503 | 84 | 187 | 7.0 | 18.0 | 0.00 | 0.00 | 0.00 | 26 | 1004.9 |
| 20260505182003 | 84 | 184 | 9.0 | 19.0 | 0.00 | 0.00 | 0.00 | 27 | 1004.8 |
| 20260505181503 | 84 | 182 | 8.0 | 21.0 | 0.00 | 0.00 | 0.00 | 26 | 1004.9 |
| 20260505181004 | 85 | 186 | 5.0 | 21.0 | 0.00 | 0.00 | 0.00 | 26 | 1005.0 |
| 20260505180504 | 85 | 219 | 6.0 | 16.0 | 0.00 | 0.00 | 0.00 | 26 | 1005.1 |
| 20260505180003 | 85 | 214 | 5.0 | 12.0 | 0.00 | 0.00 | 0.00 | 27 | 1005.1 |
| 20260505175503 | 84 | 205 | 4.0 | 17.0 | 0.00 | 0.00 | 0.00 | 28 | 1005.1 |
| 20260505175003 | 84 | 201 | 6.0 | 20.0 | 0.00 | 0.00 | 0.00 | 27 | 1005.1 |
| 20260505174503 | 83 | 188 | 7.0 | 20.0 | 0.00 | 0.00 | 0.00 | 28 | 1005.2 |
| 20260505174003 | 83 | 186 | 8.0 | 20.0 | 0.00 | 0.00 | 0.00 | 28 | 1005.3 |
| 20260505173503 | 83 | 186 | 8.0 | 20.0 | 0.00 | 0.00 | 0.00 | 27 | 1005.5 |
| 20260505173004 | 83 | 187 | 6.0 | 14.0 | 0.00 | 0.00 | 0.00 | 28 | 1005.6 |
| 20260505172504 | 83 | 186 | 7.0 | 17.0 | 0.00 | 0.00 | 0.00 | 29 | 1005.6 |
| 20260505172003 | 83 | 181 | 6.0 | 19.0 | 0.00 | 0.00 | 0.00 | 30 | 1005.6 |
| 20260505171503 | 83 | 191 | 5.0 | 19.0 | 0.00 | 0.00 | 0.00 | 30 | 1005.6 |
| 20260505171004 | 82 | 204 | 5.0 | 13.0 | 0.00 | 0.00 | 0.00 | 31 | 1005.7 |
| 20260505170504 | 82 | 204 | 5.0 | 13.0 | 0.00 | 0.00 | 0.00 | 33 | 1005.7 |
| 20260505170003 | 81 | 183 | 7.0 | 22.0 | 0.00 | 0.00 | 0.00 | 33 | 1006.0 |
| 20260505165503 | 81 | 186 | 6.0 | 22.0 | 0.00 | 0.00 | 0.00 | 32 | 1006.0 |
| 20260505165003 | 82 | 188 | 6.0 | 20.0 | 0.00 | 0.00 | 0.00 | 32 | 1006.1 |
| 20260505164504 | 81 | 187 | 6.0 | 20.0 | 0.00 | 0.00 | 0.00 | 33 | 1006.1 |
| 20260505164004 | 81 | 196 | 5.0 | 16.0 | 0.00 | 0.00 | 0.00 | 32 | 1006.1 |
| 20260505163503 | 81 | 184 | 5.0 | 13.0 | 0.00 | 0.00 | 0.00 | 32 | 1006.2 |
| 20260505163003 | 81 | 203 | 4.0 | 13.0 | 0.00 | 0.00 | 0.00 | 32 | 1006.3 |
| 20260505162503 | 81 | 230 | 4.0 | 11.0 | 0.00 | 0.00 | 0.00 | 33 | 1006.3 |
| 20260505162004 | 81 | 216 | 5.0 | 12.0 | 0.00 | 0.00 | 0.00 | 33 | 1006.5 |
| 20260505161503 | 80 | 214 | 5.0 | 14.0 | 0.00 | 0.00 | 0.00 | 34 | 1006.5 |
| 20260505161003 | 80 | 196 | 3.0 | 14.0 | 0.00 | 0.00 | 0.00 | 35 | 1006.6 |
| 20260505160503 | 80 | 198 | 3.0 | 10.0 | 0.00 | 0.00 | 0.00 | 36 | 1006.6 |
| 20260505153003 | 78 | 186 | 5.0 | 13.0 | 0.00 | 0.00 | 0.00 | 39 | 1007.2 |
| 20260505152503 | 77 | 181 | 5.0 | 13.0 | 0.00 | 0.00 | 0.00 | 39 | 1007.2 |
| 20260505152004 | 77 | 191 | 4.0 | 12.0 | 0.00 | 0.00 | 0.00 | 38 | 1007.2 |
| 20260505151504 | 78 | 249 | 4.0 | 10.0 | 0.00 | 0.00 | 0.00 | 37 | 1007.2 |
| 20260505151003 | 77 | 270 | 3.0 | 10.0 | 0.00 | 0.00 | 0.00 | 39 | 1007.2 |
| 20260505150503 | 77 | 258 | 3.0 | 10.0 | 0.00 | 0.00 | 0.00 | 39 | 1007.3 |
| 20260505140504 | 72 | 193 | 3.0 | 7.0 | 0.00 | 0.00 | 0.00 | 46 | 1007.8 |
| 20260505125003 | 65 | 175 | 2.0 | 8.0 | 0.00 | 0.00 | 0.00 | 62 | 1007.5 |
| 20260505124503 | 64 | 189 | 2.0 | 6.0 | 0.00 | 0.00 | 0.00 | 64 | 1007.6 |
| 20260505124003 | 63 | 192 | 2.0 | 6.0 | 0.00 | 0.00 | 0.00 | 65 | 1007.6 |
| 20260505123503 | 63 | 185 | 2.0 | 9.0 | 0.00 | 0.00 | 0.00 | 68 | 1007.6 |
| 20260505123003 | 62 | 170 | 3.0 | 9.0 | 0.00 | 0.00 | 0.00 | 69 | 1007.7 |
| 20260505122504 | 61 | 141 | 1.0 | 6.0 | 0.00 | 0.00 | 0.00 | 72 | 1007.7 |
| 20260505122003 | 60 | 149 | 1.0 | 3.0 | 0.00 | 0.00 | 0.00 | 74 | 1007.7 |
| 20260505121504 | 60 | 176 | 1.0 | 3.0 | 0.00 | 0.00 | 0.00 | 75 | 1007.9 |
| 20260505121004 | 59 | 177 | 0.0 | 3.0 | 0.00 | 0.00 | 0.00 | 77 | 1008.1 |
| 20260505120503 | 59 | 177 | 1.0 | 3.0 | 0.00 | 0.00 | 0.00 | 78 | 1008.1 |
| 20260505120004 | 58 | 177 | 1.0 | 3.0 | 0.00 | 0.00 | 0.00 | 80 | 1008.1 |
| 20260505115504 | 58 | 177 | 0.0 | 3.0 | 0.00 | 0.00 | 0.00 | 81 | 1008.1 |
| 20260505115004 | 57 | 177 | 0.0 | 2.0 | 0.00 | 0.00 | 0.00 | 81 | 1007.9 |
| 20260505114503 | 57 | 177 | 0.0 | 2.0 | 0.00 | 0.00 | 0.00 | 82 | 1007.8 |
| 20260505114003 | 57 | 177 | 0.0 | 2.0 | 0.00 | 0.00 | 0.00 | 84 | 1008.1 |
| 20260505113503 | 57 | 0 | 0.0 | 0.0 | 0.00 | 0.00 | 0.00 | 84 | 1007.9 |
| 20260505113003 | 56 | 176 | 1.0 | 3.0 | 0.00 | 0.00 | 0.00 | 84 | 1007.8 |
| 20260505112504 | 56 | 176 | 1.0 | 3.0 | 0.00 | 0.00 | 0.00 | 83 | 1007.7 |
| 20260505112003 | 56 | 175 | 0.0 | 1.0 | 0.00 | 0.00 | 0.00 | 82 | 1007.7 |
| 20260505111503 | 56 | 175 | 0.0 | 2.0 | 0.00 | 0.00 | 0.00 | 82 | 1007.6 |
| 20260505111003 | 55 | 175 | 0.0 | 2.0 | 0.00 | 0.00 | 0.00 | 81 | 1007.7 |
| 20260505110504 | 55 | 176 | 0.0 | 2.0 | 0.00 | 0.00 | 0.00 | 82 | 1007.9 |
| 20260505102004 | 51 | 0 | 0.0 | 0.0 | 0.00 | 0.00 | 0.00 | 84 | 1007.8 |
| 20260505101503 | 51 | 0 | 0.0 | 0.0 | 0.00 | 0.00 | 0.00 | 83 | 1007.7 |
| 20260505101003 | 51 | 0 | 0.0 | 0.0 | 0.00 | 0.00 | 0.00 | 84 | 1007.6 |
| 20260505100503 | 51 | 0 | 0.0 | 0.0 | 0.00 | 0.00 | 0.00 | 84 | 1007.5 |
| 20260505100004 | 51 | 0 | 0.0 | 0.0 | 0.00 | 0.00 | 0.00 | 84 | 1007.6 |
| 20260505095503 | 51 | 0 | 0.0 | 0.0 | 0.00 | 0.00 | 0.00 | 83 | 1007.4 |
| 20260505095003 | 51 | 198 | 0.0 | 1.0 | 0.00 | 0.00 | 0.00 | 83 | 1007.2 |
| 20260505094504 | 51 | 198 | 0.0 | 1.0 | 0.00 | 0.00 | 0.00 | 83 | 1007.4 |
| 20260505094004 | 51 | 198 | 0.0 | 1.0 | 0.00 | 0.00 | 0.00 | 83 | 1007.2 |
| 20260505093503 | 51 | 198 | 0.0 | 1.0 | 0.00 | 0.00 | 0.00 | 82 | 1007.1 |
| 20260505093003 | 51 | 0 | 0.0 | 0.0 | 0.00 | 0.00 | 0.00 | 82 | 1007.1 |
| 20260505092503 | 51 | 0 | 0.0 | 0.0 | 0.00 | 0.00 | 0.00 | 81 | 1007.1 |
| 20260505092004 | 52 | 0 | 0.0 | 0.0 | 0.00 | 0.00 | 0.00 | 81 | 1007.1 |
| 20260505091504 | 52 | 0 | 0.0 | 0.0 | 0.00 | 0.00 | 0.00 | 80 | 1007.1 |
| 20260505091003 | 52 | 0 | 0.0 | 0.0 | 0.00 | 0.00 | 0.00 | 80 | 1007.0 |
| 20260505090503 | 52 | 0 | 0.0 | 0.0 | 0.00 | 0.00 | 0.00 | 80 | 1007.0 |
| 20260505090003 | 52 | 0 | 0.0 | 0.0 | 0.00 | 0.00 | 0.00 | 80 | 1007.0 |
| 20260505085504 | 52 | 0 | 0.0 | 0.0 | 0.00 | 0.00 | 0.00 | 80 | 1006.9 |
| 20260505085003 | 52 | 0 | 0.0 | 0.0 | 0.00 | 0.00 | 0.00 | 79 | 1006.9 |
| 20260505084503 | 52 | 0 | 0.0 | 0.0 | 0.00 | 0.00 | 0.00 | 79 | 1006.9 |
| 20260505084003 | 52 | 0 | 0.0 | 0.0 | 0.00 | 0.00 | 0.00 | 79 | 1006.9 |
| 20260505083504 | 52 | 0 | 0.0 | 0.0 | 0.00 | 0.00 | 0.00 | 79 | 1007.0 |
| 20260505083003 | 52 | 0 | 0.0 | 0.0 | 0.00 | 0.00 | 0.00 | 79 | 1007.0 |
| 20260505082503 | 53 | 0 | 0.0 | 0.0 | 0.00 | 0.00 | 0.00 | 79 | 1006.9 |
| 20260505082003 | 53 | 0 | 0.0 | 0.0 | 0.00 | 0.00 | 0.00 | 78 | 1007.0 |
| 20260505081503 | 53 | 0 | 0.0 | 0.0 | 0.00 | 0.00 | 0.00 | 78 | 1006.9 |
| 20260505081004 | 53 | 198 | 0.0 | 2.0 | 0.00 | 0.00 | 0.00 | 78 | 1007.0 |
| 20260505080504 | 53 | 199 | 0.0 | 3.0 | 0.00 | 0.00 | 0.00 | 78 | 1007.0 |
| 20260505080004 | 53 | 199 | 0.0 | 3.0 | 0.00 | 0.00 | 0.00 | 78 | 1007.0 |
| 20260505075503 | 53 | 0 | 0.0 | 0.0 | 0.00 | 0.00 | 0.00 | 77 | 1007.1 |
| 20260505075003 | 53 | 0 | 0.0 | 0.0 | 0.00 | 0.00 | 0.00 | 77 | 1007.1 |
| 20260505074503 | 53 | 0 | 0.0 | 0.0 | 0.00 | 0.00 | 0.00 | 77 | 1007.1 |
| 20260505074004 | 53 | 0 | 0.0 | 0.0 | 0.00 | 0.00 | 0.00 | 77 | 1007.1 |
| 20260505073503 | 53 | 0 | 0.0 | 0.0 | 0.00 | 0.00 | 0.00 | 76 | 1007.0 |
| 20260505073003 | 53 | 200 | 0.0 | 1.0 | 0.00 | 0.00 | 0.00 | 76 | 1006.9 |
| 20260505072503 | 53 | 200 | 0.0 | 1.0 | 0.00 | 0.00 | 0.00 | 76 | 1007.0 |
| 20260505072003 | 53 | 0 | 0.0 | 0.0 | 0.00 | 0.00 | 0.00 | 76 | 1007.0 |
| 20260505071503 | 53 | 0 | 0.0 | 0.0 | 0.00 | 0.00 | 0.00 | 75 | 1006.9 |
| 20260505071004 | 53 | 0 | 0.0 | 0.0 | 0.00 | 0.00 | 0.00 | 75 | 1006.8 |
| 20260505070504 | 53 | 0 | 0.0 | 0.0 | 0.00 | 0.00 | 0.00 | 75 | 1007.0 |
| 20260505070004 | 53 | 0 | 0.0 | 0.0 | 0.00 | 0.00 | 0.00 | 74 | 1007.0 |
| 20260505065503 | 54 | 0 | 0.0 | 0.0 | 0.00 | 0.00 | 0.00 | 74 | 1006.9 |
| 20260505065004 | 54 | 0 | 0.0 | 0.0 | 0.00 | 0.00 | 0.00 | 73 | 1006.9 |
| 20260505064503 | 54 | 0 | 0.0 | 0.0 | 0.00 | 0.00 | 0.00 | 72 | 1006.8 |
| 20260505064003 | 54 | 0 | 0.0 | 0.0 | 0.00 | 0.00 | 0.00 | 72 | 1006.9 |
| 20260505063503 | 54 | 0 | 0.0 | 0.0 | 0.00 | 0.00 | 0.00 | 72 | 1007.0 |
| 20260505063003 | 54 | 0 | 0.0 | 0.0 | 0.00 | 0.00 | 0.00 | 71 | 1007.0 |
| 20260505062504 | 54 | 0 | 0.0 | 0.0 | 0.00 | 0.00 | 0.00 | 71 | 1007.1 |
| 20260505062004 | 55 | 0 | 0.0 | 0.0 | 0.00 | 0.00 | 0.00 | 70 | 1007.1 |
| 20260505061503 | 55 | 0 | 0.0 | 0.0 | 0.00 | 0.00 | 0.00 | 70 | 1007.1 |
| 20260505061003 | 55 | 0 | 0.0 | 0.0 | 0.00 | 0.00 | 0.00 | 69 | 1007.1 |
| 20260505060503 | 55 | 0 | 0.0 | 0.0 | 0.00 | 0.00 | 0.00 | 68 | 1007.1 |
| 20260505060004 | 56 | 0 | 0.0 | 0.0 | 0.00 | 0.00 | 0.00 | 67 | 1007.1 |
| 20260505055503 | 56 | 0 | 0.0 | 0.0 | 0.00 | 0.00 | 0.00 | 66 | 1007.1 |
| 20260505055003 | 56 | 0 | 0.0 | 0.0 | 0.00 | 0.00 | 0.00 | 66 | 1007.1 |
| 20260505054504 | 56 | 0 | 0.0 | 0.0 | 0.00 | 0.00 | 0.00 | 65 | 1007.1 |
| 20260505054004 | 56 | 0 | 0.0 | 0.0 | 0.00 | 0.00 | 0.00 | 64 | 1007.2 |
| 20260505053503 | 57 | 0 | 0.0 | 0.0 | 0.00 | 0.00 | 0.00 | 64 | 1007.2 |
| 20260505053003 | 57 | 200 | 0.0 | 2.0 | 0.00 | 0.00 | 0.00 | 64 | 1007.2 |
| 20260505052503 | 57 | 200 | 0.0 | 2.0 | 0.00 | 0.00 | 0.00 | 63 | 1007.2 |
| 20260505052003 | 57 | 201 | 0.0 | 1.0 | 0.00 | 0.00 | 0.00 | 63 | 1007.3 |
| 20260505051504 | 57 | 200 | 0.0 | 1.0 | 0.00 | 0.00 | 0.00 | 62 | 1007.4 |
| 20260505051003 | 57 | 200 | 0.0 | 3.0 | 0.00 | 0.00 | 0.00 | 62 | 1007.4 |
| 20260505050503 | 57 | 200 | 0.0 | 3.0 | 0.00 | 0.00 | 0.00 | 62 | 1007.4 |
| 20260505041503 | 60 | 0 | 0.0 | 0.0 | 0.00 | 0.00 | 0.00 | 56 | 1007.5 |
| 20260505041003 | 60 | 0 | 0.0 | 0.0 | 0.00 | 0.00 | 0.00 | 55 | 1007.4 |
| 20260505040504 | 60 | 196 | 0.0 | 2.0 | 0.00 | 0.00 | 0.00 | 54 | 1007.5 |
| 20260505040004 | 60 | 196 | 0.0 | 2.0 | 0.00 | 0.00 | 0.00 | 54 | 1007.5 |
| 20260505035504 | 61 | 196 | 0.0 | 1.0 | 0.00 | 0.00 | 0.00 | 53 | 1007.5 |
| 20260505035004 | 61 | 196 | 0.0 | 1.0 | 0.00 | 0.00 | 0.00 | 52 | 1007.5 |
| 20260505034503 | 61 | 196 | 0.0 | 1.0 | 0.00 | 0.00 | 0.00 | 51 | 1007.5 |
| 20260505034003 | 62 | 196 | 0.0 | 2.0 | 0.00 | 0.00 | 0.00 | 51 | 1007.5 |
| 20260505033503 | 62 | 196 | 0.0 | 2.0 | 0.00 | 0.00 | 0.00 | 50 | 1007.5 |
| 20260505033004 | 62 | 188 | 1.0 | 5.0 | 0.00 | 0.00 | 0.00 | 49 | 1007.5 |
| 20260505032503 | 62 | 186 | 1.0 | 5.0 | 0.00 | 0.00 | 0.00 | 49 | 1007.5 |
| 20260505032004 | 62 | 187 | 2.0 | 5.0 | 0.00 | 0.00 | 0.00 | 49 | 1007.5 |
| 20260505031503 | 62 | 188 | 2.0 | 8.0 | 0.00 | 0.00 | 0.00 | 49 | 1007.5 |
| 20260505031003 | 62 | 187 | 2.0 | 8.0 | 0.00 | 0.00 | 0.00 | 49 | 1007.6 |
| 20260505030503 | 61 | 179 | 2.0 | 6.0 | 0.00 | 0.00 | 0.00 | 50 | 1007.6 |
| 20260505030003 | 60 | 175 | 1.0 | 6.0 | 0.00 | 0.00 | 0.00 | 52 | 1007.6 |
| 20260505025503 | 60 | 171 | 1.0 | 6.0 | 0.00 | 0.00 | 0.00 | 53 | 1007.6 |
| 20260505025003 | 59 | 173 | 1.0 | 5.0 | 0.00 | 0.00 | 0.00 | 54 | 1007.5 |
| 20260505024504 | 58 | 184 | 0.0 | 5.0 | 0.00 | 0.00 | 0.00 | 55 | 1007.6 |
| 20260505024003 | 58 | 194 | 0.0 | 2.0 | 0.00 | 0.00 | 0.00 | 56 | 1007.6 |
| 20260505023503 | 58 | 0 | 0.0 | 0.0 | 0.00 | 0.00 | 0.00 | 57 | 1007.5 |
| 20260505023003 | 59 | 0 | 0.0 | 0.0 | 0.00 | 0.00 | 0.00 | 56 | 1007.6 |
| 20260505022503 | 59 | 0 | 0.0 | 0.0 | 0.00 | 0.00 | 0.00 | 56 | 1007.6 |
| 20260505022004 | 59 | 0 | 0.0 | 0.0 | 0.00 | 0.00 | 0.00 | 55 | 1007.6 |
| 20260505021504 | 59 | 0 | 0.0 | 0.0 | 0.00 | 0.00 | 0.00 | 54 | 1007.7 |
| 20260505021003 | 60 | 0 | 0.0 | 0.0 | 0.00 | 0.00 | 0.00 | 53 | 1007.7 |
| 20260505020503 | 60 | 0 | 0.0 | 0.0 | 0.00 | 0.00 | 0.00 | 52 | 1007.6 |
| 20260505020003 | 60 | 0 | 0.0 | 0.0 | 0.00 | 0.00 | 0.00 | 52 | 1007.6 |
| 20260505015504 | 60 | 0 | 0.0 | 0.0 | 0.00 | 0.00 | 0.00 | 51 | 1007.5 |
| 20260505015004 | 61 | 0 | 0.0 | 0.0 | 0.00 | 0.00 | 0.00 | 50 | 1007.5 |
| 20260505014503 | 61 | 0 | 0.0 | 0.0 | 0.00 | 0.00 | 0.00 | 49 | 1007.4 |
| 20260505014003 | 62 | 0 | 0.0 | 0.0 | 0.00 | 0.00 | 0.00 | 49 | 1007.5 |
| 20260505013503 | 62 | 0 | 0.0 | 0.0 | 0.00 | 0.00 | 0.00 | 48 | 1007.4 |
| 20260505013004 | 62 | 0 | 0.0 | 0.0 | 0.00 | 0.00 | 0.00 | 47 | 1007.3 |
| 20260505012504 | 63 | 0 | 0.0 | 0.0 | 0.00 | 0.00 | 0.00 | 46 | 1007.3 |
| 20260505012003 | 63 | 0 | 0.0 | 0.0 | 0.00 | 0.00 | 0.00 | 45 | 1007.2 |
| 20260505011503 | 64 | 0 | 0.0 | 0.0 | 0.00 | 0.00 | 0.00 | 44 | 1007.1 |
| 20260505011003 | 64 | 0 | 0.0 | 0.0 | 0.00 | 0.00 | 0.00 | 43 | 1007.1 |
| 20260505010504 | 65 | 0 | 0.0 | 0.0 | 0.00 | 0.00 | 0.00 | 41 | 1007.0 |
| 20260505010004 | 65 | 196 | 0.0 | 1.0 | 0.00 | 0.00 | 0.00 | 41 | 1006.9 |
| 20260505005503 | 66 | 196 | 0.0 | 1.0 | 0.00 | 0.00 | 0.00 | 40 | 1006.9 |
| 20260505005004 | 66 | 0 | 0.0 | 0.0 | 0.00 | 0.00 | 0.00 | 38 | 1006.8 |
| 20260505004503 | 66 | 0 | 0.0 | 0.0 | 0.00 | 0.00 | 0.00 | 37 | 1006.7 |
| 20260505004004 | 67 | 200 | 0.0 | 3.0 | 0.00 | 0.00 | 0.00 | 36 | 1006.7 |
| 20260505003504 | 67 | 200 | 0.0 | 3.0 | 0.00 | 0.00 | 0.00 | 36 | 1006.6 |
| 20260505003003 | 68 | 200 | 0.0 | 2.0 | 0.00 | 0.00 | 0.00 | 35 | 1006.6 |
| 20260505002503 | 68 | 200 | 0.0 | 1.0 | 0.00 | 0.00 | 0.00 | 35 | 1006.5 |
| 20260505002003 | 68 | 200 | 0.0 | 5.0 | 0.00 | 0.00 | 0.00 | 34 | 1006.4 |
| 20260505001504 | 69 | 201 | 1.0 | 5.0 | 0.00 | 0.00 | 0.00 | 32 | 1006.3 |
| 20260505001003 | 69 | 199 | 1.0 | 7.0 | 0.00 | 0.00 | 0.00 | 31 | 1006.1 |
| 20260505000503 | 69 | 198 | 1.0 | 7.0 | 0.00 | 0.00 | 0.00 | 31 | 1006.1 |
| 20260505000004 | 69 | 206 | 2.0 | 7.0 | 0.00 | 0.00 | 0.00 | 30 | 1006.0 |
| 20260504235504 | 69 | 200 | 3.0 | 7.0 | 0.00 | 0.00 | 0.00 | 30 | 1005.9 |
| 20260504235003 | 70 | 196 | 3.0 | 8.0 | 0.00 | 0.00 | 0.00 | 30 | 1005.9 |
| 20260504234503 | 70 | 193 | 2.0 | 8.0 | 0.00 | 0.00 | 0.00 | 29 | 1005.8 |
| 20260504234003 | 70 | 184 | 3.0 | 8.0 | 0.00 | 0.00 | 0.00 | 30 | 1005.7 |
| 20260504233504 | 70 | 189 | 3.0 | 8.0 | 0.00 | 0.00 | 0.00 | 29 | 1005.6 |
| 20260504233003 | 70 | 192 | 3.0 | 8.0 | 0.00 | 0.00 | 0.00 | 28 | 1005.6 |
| 20260504232503 | 71 | 192 | 3.0 | 8.0 | 0.00 | 0.00 | 0.00 | 28 | 1005.6 |
| 20260504232003 | 71 | 194 | 2.0 | 7.0 | 0.00 | 0.00 | 0.00 | 28 | 1005.5 |
| 20260504231504 | 71 | 189 | 3.0 | 7.0 | 0.00 | 0.00 | 0.00 | 27 | 1005.5 |
| 20260504231004 | 71 | 189 | 3.0 | 12.0 | 0.00 | 0.00 | 0.00 | 28 | 1005.4 |
| 20260504230503 | 72 | 195 | 4.0 | 12.0 | 0.00 | 0.00 | 0.00 | 28 | 1005.3 |
| 20260504230003 | 72 | 195 | 4.0 | 12.0 | 0.00 | 0.00 | 0.00 | 27 | 1005.3 |
| 20260504225503 | 72 | 200 | 4.0 | 12.0 | 0.00 | 0.00 | 0.00 | 27 | 1005.3 |
| 20260504225003 | 72 | 197 | 3.0 | 11.0 | 0.00 | 0.00 | 0.00 | 28 | 1005.4 |
| 20260504224503 | 72 | 183 | 2.0 | 11.0 | 0.00 | 0.00 | 0.00 | 27 | 1005.3 |
| 20260504224004 | 72 | 181 | 1.0 | 6.0 | 0.00 | 0.00 | 0.00 | 27 | 1005.3 |
| 20260504223503 | 72 | 196 | 3.0 | 11.0 | 0.00 | 0.00 | 0.00 | 27 | 1005.3 |
| 20260504223003 | 72 | 210 | 3.0 | 11.0 | 0.00 | 0.00 | 0.00 | 26 | 1005.4 |
| 20260504222504 | 73 | 189 | 3.0 | 12.0 | 0.00 | 0.00 | 0.00 | 28 | 1005.4 |
| 20260504222004 | 73 | 194 | 4.0 | 12.0 | 0.00 | 0.00 | 0.00 | 26 | 1005.4 |
| 20260504221503 | 73 | 204 | 3.0 | 8.0 | 0.00 | 0.00 | 0.00 | 26 | 1005.4 |
| 20260504221003 | 73 | 192 | 4.0 | 11.0 | 0.00 | 0.00 | 0.00 | 27 | 1005.4 |
| 20260504220503 | 73 | 195 | 3.0 | 11.0 | 0.00 | 0.00 | 0.00 | 26 | 1005.5 |
| 20260504220004 | 73 | 193 | 3.0 | 11.0 | 0.00 | 0.00 | 0.00 | 26 | 1005.6 |
| 20260504215503 | 73 | 192 | 4.0 | 11.0 | 0.00 | 0.00 | 0.00 | 27 | 1005.6 |
| 20260504215003 | 73 | 185 | 3.0 | 10.0 | 0.00 | 0.00 | 0.00 | 26 | 1005.6 |
| 20260504214503 | 73 | 185 | 4.0 | 11.0 | 0.00 | 0.00 | 0.00 | 26 | 1005.7 |
| 20260504214004 | 73 | 181 | 5.0 | 17.0 | 0.00 | 0.00 | 0.00 | 26 | 1005.8 |
| 20260504213504 | 73 | 185 | 5.0 | 17.0 | 0.00 | 0.00 | 0.00 | 26 | 1005.8 |
| 20260504213003 | 73 | 197 | 3.0 | 14.0 | 0.00 | 0.00 | 0.00 | 25 | 1005.8 |
| 20260504212503 | 73 | 181 | 3.0 | 8.0 | 0.00 | 0.00 | 0.00 | 25 | 1005.8 |
| 20260504212003 | 74 | 185 | 3.0 | 11.0 | 0.00 | 0.00 | 0.00 | 26 | 1005.8 |
| 20260504211503 | 74 | 188 | 6.0 | 14.0 | 0.00 | 0.00 | 0.00 | 26 | 1005.8 |
| 20260504211003 | 74 | 184 | 6.0 | 14.0 | 0.00 | 0.00 | 0.00 | 25 | 1005.8 |
| 20260504210503 | 74 | 183 | 4.0 | 14.0 | 0.00 | 0.00 | 0.00 | 26 | 1005.8 |
| 20260504210004 | 74 | 190 | 3.0 | 14.0 | 0.00 | 0.00 | 0.00 | 25 | 1005.9 |
| 20260504205503 | 74 | 206 | 4.0 | 10.0 | 0.00 | 0.00 | 0.00 | 26 | 1006.0 |
| 20260504205003 | 74 | 211 | 4.0 | 12.0 | 0.00 | 0.00 | 0.00 | 24 | 1006.0 |
| 20260504204504 | 74 | 214 | 4.0 | 12.0 | 0.00 | 0.00 | 0.00 | 25 | 1005.9 |
| 20260504204004 | 74 | 204 | 3.0 | 12.0 | 0.00 | 0.00 | 0.00 | 25 | 1005.9 |
| 20260504203503 | 73 | 205 | 3.0 | 12.0 | 0.00 | 0.00 | 0.00 | 25 | 1005.8 |
| 20260504203003 | 73 | 231 | 3.0 | 11.0 | 0.00 | 0.00 | 0.00 | 24 | 1005.8 |
| 20260504202503 | 73 | 215 | 3.0 | 11.0 | 0.00 | 0.00 | 0.00 | 25 | 1005.9 |
| 20260504202004 | 73 | 201 | 4.0 | 11.0 | 0.00 | 0.00 | 0.00 | 25 | 1006.0 |
| 20260504201503 | 74 | 206 | 5.0 | 17.0 | 0.00 | 0.00 | 0.00 | 24 | 1006.0 |
| 20260504201003 | 74 | 190 | 5.0 | 17.0 | 0.00 | 0.00 | 0.00 | 24 | 1006.1 |
| 20260504200503 | 74 | 189 | 3.0 | 14.0 | 0.00 | 0.00 | 0.00 | 24 | 1006.0 |
| 20260504200004 | 75 | 197 | 4.0 | 13.0 | 0.00 | 0.00 | 0.00 | 24 | 1006.1 |
| 20260504195504 | 74 | 188 | 6.0 | 13.0 | 0.00 | 0.00 | 0.00 | 25 | 1006.1 |
| 20260504195003 | 74 | 196 | 5.0 | 13.0 | 0.00 | 0.00 | 0.00 | 24 | 1006.2 |
| 20260504194503 | 74 | 196 | 5.0 | 12.0 | 0.00 | 0.00 | 0.00 | 23 | 1006.2 |
| 20260504194003 | 74 | 187 | 4.0 | 12.0 | 0.00 | 0.00 | 0.00 | 24 | 1006.2 |
| 20260504193503 | 74 | 200 | 4.0 | 14.0 | 0.00 | 0.00 | 0.00 | 25 | 1006.3 |